sensor_id;sensor_type;location;lat;lon;timestamp;P1;durP1;ratioP1;P2;durP2;ratioP2
14778;SDS011;7481;53.750;10.570;2024-02-15T00:04:17;26.30;;;13.73;;
14778;SDS011;7481;53.750;10.570;2024-02-15T00:08:43;20.83;;;10.80;;
14778;SDS011;7481;53.750;10.570;2024-02-15T00:13:12;20.17;;;10.60;;
14778;SDS011;7481;53.750;10.570;2024-02-15T00:17:46;19.00;;;10.30;;
14778;SDS011;7481;53.750;10.570;2024-02-15T00:22:20;17.67;;;9.40;;
14778;SDS011;7481;53.750;10.570;2024-02-15T00:26:53;15.80;;;9.53;;
14778;SDS011;7481;53.750;10.570;2024-02-15T00:31:20;13.97;;;7.57;;
14778;SDS011;7481;53.750;10.570;2024-02-15T00:35:50;15.33;;;8.30;;
14778;SDS011;7481;53.750;10.570;2024-02-15T00:40:25;13.50;;;7.33;;
14778;SDS011;7481;53.750;10.570;2024-02-15T00:44:56;15.67;;;7.93;;
14778;SDS011;7481;53.750;10.570;2024-02-15T00:49:22;14.50;;;8.33;;
14778;SDS011;7481;53.750;10.570;2024-02-15T00:53:51;15.00;;;7.63;;
14778;SDS011;7481;53.750;10.570;2024-02-15T00:58:20;15.70;;;8.40;;
14778;SDS011;7481;53.750;10.570;2024-02-15T01:02:52;14.57;;;8.87;;
14778;SDS011;7481;53.750;10.570;2024-02-15T01:07:23;14.43;;;8.13;;
14778;SDS011;7481;53.750;10.570;2024-02-15T01:11:55;14.93;;;8.23;;
14778;SDS011;7481;53.750;10.570;2024-02-15T01:16:25;17.23;;;9.17;;
14778;SDS011;7481;53.750;10.570;2024-02-15T01:21:00;16.20;;;8.60;;
14778;SDS011;7481;53.750;10.570;2024-02-15T01:25:26;18.30;;;9.33;;
14778;SDS011;7481;53.750;10.570;2024-02-15T01:29:56;18.53;;;9.43;;
14778;SDS011;7481;53.750;10.570;2024-02-15T01:34:25;18.23;;;9.97;;
14778;SDS011;7481;53.750;10.570;2024-02-15T01:39:01;22.97;;;11.80;;
14778;SDS011;7481;53.750;10.570;2024-02-15T01:43:32;24.33;;;13.67;;
14778;SDS011;7481;53.750;10.570;2024-02-15T01:48:10;26.87;;;16.53;;
14778;SDS011;7481;53.750;10.570;2024-02-15T01:52:49;32.07;;;17.20;;
14778;SDS011;7481;53.750;10.570;2024-02-15T01:57:24;36.60;;;19.40;;
14778;SDS011;7481;53.750;10.570;2024-02-15T02:01:53;38.13;;;20.33;;
14778;SDS011;7481;53.750;10.570;2024-02-15T02:06:18;44.47;;;22.07;;
14778;SDS011;7481;53.750;10.570;2024-02-15T02:10:46;38.87;;;21.03;;
14778;SDS011;7481;53.750;10.570;2024-02-15T02:15:17;41.93;;;21.13;;
14778;SDS011;7481;53.750;10.570;2024-02-15T02:19:46;45.80;;;21.07;;
14778;SDS011;7481;53.750;10.570;2024-02-15T02:24:16;41.93;;;20.80;;
14778;SDS011;7481;53.750;10.570;2024-02-15T02:28:44;42.13;;;20.20;;
14778;SDS011;7481;53.750;10.570;2024-02-15T02:33:22;43.30;;;20.90;;
14778;SDS011;7481;53.750;10.570;2024-02-15T02:38:02;39.87;;;19.67;;
14778;SDS011;7481;53.750;10.570;2024-02-15T02:42:50;39.97;;;19.43;;
14778;SDS011;7481;53.750;10.570;2024-02-15T02:47:22;37.03;;;19.50;;
14778;SDS011;7481;53.750;10.570;2024-02-15T02:52:00;38.13;;;19.83;;
14778;SDS011;7481;53.750;10.570;2024-02-15T02:56:37;35.80;;;17.03;;
14778;SDS011;7481;53.750;10.570;2024-02-15T03:01:12;32.07;;;16.23;;
14778;SDS011;7481;53.750;10.570;2024-02-15T03:05:40;33.70;;;16.33;;
14778;SDS011;7481;53.750;10.570;2024-02-15T03:10:09;32.30;;;16.47;;
14778;SDS011;7481;53.750;10.570;2024-02-15T03:14:44;33.57;;;16.43;;
14778;SDS011;7481;53.750;10.570;2024-02-15T03:19:08;35.47;;;18.03;;
14778;SDS011;7481;53.750;10.570;2024-02-15T03:23:46;36.20;;;18.40;;
14778;SDS011;7481;53.750;10.570;2024-02-15T03:28:35;40.73;;;19.03;;
14778;SDS011;7481;53.750;10.570;2024-02-15T03:33:03;37.80;;;19.47;;
14778;SDS011;7481;53.750;10.570;2024-02-15T03:37:36;41.60;;;19.57;;
14778;SDS011;7481;53.750;10.570;2024-02-15T03:42:08;40.43;;;19.73;;
14778;SDS011;7481;53.750;10.570;2024-02-15T03:46:36;36.53;;;18.80;;
14778;SDS011;7481;53.750;10.570;2024-02-15T03:51:04;49.33;;;22.17;;
14778;SDS011;7481;53.750;10.570;2024-02-15T03:55:33;41.83;;;20.33;;
14778;SDS011;7481;53.750;10.570;2024-02-15T03:59:59;40.70;;;20.33;;
14778;SDS011;7481;53.750;10.570;2024-02-15T04:04:26;39.97;;;18.87;;
14778;SDS011;7481;53.750;10.570;2024-02-15T04:08:59;39.10;;;18.13;;
14778;SDS011;7481;53.750;10.570;2024-02-15T04:13:30;34.50;;;17.20;;
14778;SDS011;7481;53.750;10.570;2024-02-15T04:18:01;37.73;;;17.57;;
14778;SDS011;7481;53.750;10.570;2024-02-15T04:22:32;37.57;;;17.57;;
14778;SDS011;7481;53.750;10.570;2024-02-15T04:27:04;44.77;;;20.47;;
14778;SDS011;7481;53.750;10.570;2024-02-15T04:31:47;40.63;;;19.03;;
14778;SDS011;7481;53.750;10.570;2024-02-15T04:36:35;40.07;;;18.00;;
14778;SDS011;7481;53.750;10.570;2024-02-15T04:41:14;42.90;;;18.70;;
14778;SDS011;7481;53.750;10.570;2024-02-15T04:45:45;37.20;;;18.03;;
14778;SDS011;7481;53.750;10.570;2024-02-15T04:50:32;43.60;;;19.10;;
14778;SDS011;7481;53.750;10.570;2024-02-15T04:55:03;45.30;;;18.40;;
14778;SDS011;7481;53.750;10.570;2024-02-15T04:59:35;39.80;;;18.73;;
14778;SDS011;7481;53.750;10.570;2024-02-15T05:04:11;40.57;;;18.87;;
14778;SDS011;7481;53.750;10.570;2024-02-15T05:08:50;44.23;;;19.50;;
14778;SDS011;7481;53.750;10.570;2024-02-15T05:13:20;47.10;;;19.97;;
14778;SDS011;7481;53.750;10.570;2024-02-15T05:17:59;49.60;;;20.33;;
14778;SDS011;7481;53.750;10.570;2024-02-15T05:22:35;51.33;;;21.77;;
14778;SDS011;7481;53.750;10.570;2024-02-15T05:27:13;51.40;;;23.13;;
14778;SDS011;7481;53.750;10.570;2024-02-15T05:31:45;50.20;;;21.40;;
14778;SDS011;7481;53.750;10.570;2024-02-15T05:36:17;50.57;;;22.43;;
14778;SDS011;7481;53.750;10.570;2024-02-15T05:40:45;51.17;;;22.13;;
14778;SDS011;7481;53.750;10.570;2024-02-15T05:45:27;49.23;;;20.90;;
14778;SDS011;7481;53.750;10.570;2024-02-15T05:50:01;61.40;;;29.25;;
14778;SDS011;7481;53.750;10.570;2024-02-15T05:54:44;48.77;;;21.53;;
14778;SDS011;7481;53.750;10.570;2024-02-15T05:59:12;58.20;;;27.38;;
14778;SDS011;7481;53.750;10.570;2024-02-15T06:03:44;49.43;;;20.50;;
14778;SDS011;7481;53.750;10.570;2024-02-15T06:08:13;46.80;;;19.60;;
14778;SDS011;7481;53.750;10.570;2024-02-15T06:12:49;46.07;;;20.47;;
14778;SDS011;7481;53.750;10.570;2024-02-15T06:17:15;46.40;;;19.33;;
14778;SDS011;7481;53.750;10.570;2024-02-15T06:21:56;47.53;;;18.53;;
14778;SDS011;7481;53.750;10.570;2024-02-15T06:26:31;48.40;;;20.13;;
14778;SDS011;7481;53.750;10.570;2024-02-15T06:31:07;46.60;;;19.00;;
14778;SDS011;7481;53.750;10.570;2024-02-15T06:35:54;46.13;;;19.27;;
14778;SDS011;7481;53.750;10.570;2024-02-15T06:40:36;40.73;;;18.80;;
14778;SDS011;7481;53.750;10.570;2024-02-15T06:45:05;48.83;;;20.27;;
14778;SDS011;7481;53.750;10.570;2024-02-15T06:49:33;45.07;;;20.33;;
14778;SDS011;7481;53.750;10.570;2024-02-15T06:54:00;49.13;;;21.97;;
14778;SDS011;7481;53.750;10.570;2024-02-15T06:58:26;45.47;;;20.60;;
14778;SDS011;7481;53.750;10.570;2024-02-15T07:02:54;48.47;;;21.83;;
14778;SDS011;7481;53.750;10.570;2024-02-15T07:07:20;45.43;;;20.87;;
14778;SDS011;7481;53.750;10.570;2024-02-15T07:11:51;46.47;;;20.67;;
14778;SDS011;7481;53.750;10.570;2024-02-15T07:16:17;48.17;;;20.93;;
14778;SDS011;7481;53.750;10.570;2024-02-15T07:20:45;48.30;;;22.20;;
14778;SDS011;7481;53.750;10.570;2024-02-15T07:25:10;50.50;;;22.97;;
14778;SDS011;7481;53.750;10.570;2024-02-15T07:29:35;58.33;;;24.13;;
14778;SDS011;7481;53.750;10.570;2024-02-15T07:34:04;61.73;;;25.07;;
14778;SDS011;7481;53.750;10.570;2024-02-15T07:38:38;52.63;;;24.70;;
14778;SDS011;7481;53.750;10.570;2024-02-15T07:43:03;51.10;;;22.43;;
14778;SDS011;7481;53.750;10.570;2024-02-15T07:47:29;58.43;;;23.73;;
14778;SDS011;7481;53.750;10.570;2024-02-15T07:51:55;59.20;;;23.37;;
14778;SDS011;7481;53.750;10.570;2024-02-15T07:56:22;57.53;;;23.77;;
14778;SDS011;7481;53.750;10.570;2024-02-15T08:00:46;65.37;;;24.83;;
14778;SDS011;7481;53.750;10.570;2024-02-15T08:05:11;64.23;;;23.60;;
14778;SDS011;7481;53.750;10.570;2024-02-15T08:09:37;61.13;;;24.33;;
14778;SDS011;7481;53.750;10.570;2024-02-15T08:14:04;63.90;;;22.93;;
14778;SDS011;7481;53.750;10.570;2024-02-15T08:18:36;61.13;;;24.20;;
14778;SDS011;7481;53.750;10.570;2024-02-15T08:23:01;61.23;;;24.23;;
14778;SDS011;7481;53.750;10.570;2024-02-15T08:27:26;60.13;;;24.37;;
14778;SDS011;7481;53.750;10.570;2024-02-15T08:31:59;61.83;;;23.33;;
14778;SDS011;7481;53.750;10.570;2024-02-15T08:36:22;60.03;;;22.53;;
14778;SDS011;7481;53.750;10.570;2024-02-15T08:40:47;58.87;;;24.20;;
14778;SDS011;7481;53.750;10.570;2024-02-15T08:45:12;59.00;;;23.97;;
14778;SDS011;7481;53.750;10.570;2024-02-15T08:49:37;64.50;;;28.73;;
14778;SDS011;7481;53.750;10.570;2024-02-15T08:54:02;59.47;;;23.23;;
14778;SDS011;7481;53.750;10.570;2024-02-15T08:58:27;51.93;;;21.73;;
14778;SDS011;7481;53.750;10.570;2024-02-15T09:03:13;53.00;;;27.20;;
14778;SDS011;7481;53.750;10.570;2024-02-15T09:07:38;40.97;;;19.40;;
14778;SDS011;7481;53.750;10.570;2024-02-15T09:12:07;50.70;;;21.50;;
14778;SDS011;7481;53.750;10.570;2024-02-15T09:16:32;45.17;;;20.10;;
14778;SDS011;7481;53.750;10.570;2024-02-15T09:21:00;52.30;;;21.47;;
14778;SDS011;7481;53.750;10.570;2024-02-15T09:25:25;46.13;;;20.87;;
14778;SDS011;7481;53.750;10.570;2024-02-15T09:29:51;46.93;;;21.30;;
14778;SDS011;7481;53.750;10.570;2024-02-15T09:34:16;42.07;;;19.47;;
14778;SDS011;7481;53.750;10.570;2024-02-15T09:38:56;42.13;;;19.17;;
14778;SDS011;7481;53.750;10.570;2024-02-15T09:43:24;39.03;;;19.07;;
14778;SDS011;7481;53.750;10.570;2024-02-15T09:47:59;36.50;;;17.83;;
14778;SDS011;7481;53.750;10.570;2024-02-15T09:52:31;35.73;;;17.47;;
14778;SDS011;7481;53.750;10.570;2024-02-15T09:57:03;34.73;;;16.63;;
14778;SDS011;7481;53.750;10.570;2024-02-15T10:01:27;33.20;;;16.23;;
14778;SDS011;7481;53.750;10.570;2024-02-15T10:05:56;29.90;;;15.67;;
14778;SDS011;7481;53.750;10.570;2024-02-15T10:10:22;27.47;;;14.17;;
14778;SDS011;7481;53.750;10.570;2024-02-15T10:14:50;26.07;;;13.53;;
14778;SDS011;7481;53.750;10.570;2024-02-15T10:19:14;24.63;;;14.17;;
14778;SDS011;7481;53.750;10.570;2024-02-15T10:23:41;21.97;;;12.40;;
14778;SDS011;7481;53.750;10.570;2024-02-15T10:28:09;21.93;;;11.77;;
14778;SDS011;7481;53.750;10.570;2024-02-15T10:32:36;20.37;;;12.50;;
14778;SDS011;7481;53.750;10.570;2024-02-15T10:37:15;21.10;;;13.70;;
14778;SDS011;7481;53.750;10.570;2024-02-15T10:41:40;20.00;;;12.97;;
14778;SDS011;7481;53.750;10.570;2024-02-15T10:46:05;20.23;;;12.60;;
14778;SDS011;7481;53.750;10.570;2024-02-15T10:50:31;21.73;;;13.23;;
14778;SDS011;7481;53.750;10.570;2024-02-15T10:54:57;19.40;;;12.83;;
14778;SDS011;7481;53.750;10.570;2024-02-15T10:59:28;19.27;;;13.13;;
14778;SDS011;7481;53.750;10.570;2024-02-15T11:04:00;16.63;;;10.53;;
14778;SDS011;7481;53.750;10.570;2024-02-15T11:08:31;15.00;;;9.90;;
14778;SDS011;7481;53.750;10.570;2024-02-15T11:13:02;14.20;;;9.37;;
14778;SDS011;7481;53.750;10.570;2024-02-15T11:22:21;14.93;;;10.67;;
14778;SDS011;7481;53.750;10.570;2024-02-15T11:26:58;17.73;;;10.93;;
14778;SDS011;7481;53.750;10.570;2024-02-15T11:36:13;16.73;;;11.33;;
14778;SDS011;7481;53.750;10.570;2024-02-15T11:45:07;16.20;;;11.47;;
14778;SDS011;7481;53.750;10.570;2024-02-15T11:49:31;22.20;;;12.33;;
14778;SDS011;7481;53.750;10.570;2024-02-15T11:54:07;19.63;;;12.60;;
14778;SDS011;7481;53.750;10.570;2024-02-15T11:58:34;17.27;;;12.13;;
14778;SDS011;7481;53.750;10.570;2024-02-15T12:03:15;17.90;;;11.50;;
14778;SDS011;7481;53.750;10.570;2024-02-15T12:08:22;20.17;;;12.77;;
14778;SDS011;7481;53.750;10.570;2024-02-15T12:13:17;19.87;;;13.07;;
14778;SDS011;7481;53.750;10.570;2024-02-15T12:18:17;22.00;;;14.87;;
14778;SDS011;7481;53.750;10.570;2024-02-15T12:23:00;24.93;;;15.67;;
14778;SDS011;7481;53.750;10.570;2024-02-15T12:27:23;28.70;;;19.50;;
14778;SDS011;7481;53.750;10.570;2024-02-15T12:31:58;24.90;;;19.17;;
14778;SDS011;7481;53.750;10.570;2024-02-15T12:36:24;24.57;;;15.43;;
14778;SDS011;7481;53.750;10.570;2024-02-15T12:40:57;22.93;;;16.43;;
14778;SDS011;7481;53.750;10.570;2024-02-15T12:45:24;23.37;;;15.20;;
14778;SDS011;7481;53.750;10.570;2024-02-15T12:50:12;25.07;;;16.77;;
14778;SDS011;7481;53.750;10.570;2024-02-15T12:54:37;26.17;;;16.90;;
14778;SDS011;7481;53.750;10.570;2024-02-15T12:59:02;30.27;;;19.17;;
14778;SDS011;7481;53.750;10.570;2024-02-15T13:03:32;26.13;;;18.30;;
14778;SDS011;7481;53.750;10.570;2024-02-15T13:07:58;32.70;;;19.10;;
14778;SDS011;7481;53.750;10.570;2024-02-15T13:12:25;30.43;;;19.10;;
14778;SDS011;7481;53.750;10.570;2024-02-15T13:17:02;31.00;;;20.30;;
14778;SDS011;7481;53.750;10.570;2024-02-15T13:21:29;29.53;;;19.27;;
14778;SDS011;7481;53.750;10.570;2024-02-15T13:25:54;30.67;;;19.37;;
14778;SDS011;7481;53.750;10.570;2024-02-15T13:30:31;30.33;;;19.37;;
14778;SDS011;7481;53.750;10.570;2024-02-15T13:35:18;25.80;;;19.07;;
14778;SDS011;7481;53.750;10.570;2024-02-15T13:39:49;27.80;;;18.07;;
14778;SDS011;7481;53.750;10.570;2024-02-15T13:44:15;23.80;;;15.87;;
14778;SDS011;7481;53.750;10.570;2024-02-15T13:48:41;37.20;;;22.97;;
14778;SDS011;7481;53.750;10.570;2024-02-15T13:53:09;26.27;;;20.07;;
14778;SDS011;7481;53.750;10.570;2024-02-15T13:57:35;23.30;;;16.23;;
14778;SDS011;7481;53.750;10.570;2024-02-15T14:02:17;21.93;;;16.10;;
14778;SDS011;7481;53.750;10.570;2024-02-15T14:06:43;22.37;;;16.23;;
14778;SDS011;7481;53.750;10.570;2024-02-15T14:11:08;21.97;;;14.23;;
14778;SDS011;7481;53.750;10.570;2024-02-15T14:15:36;19.27;;;13.63;;
14778;SDS011;7481;53.750;10.570;2024-02-15T14:20:02;19.33;;;13.83;;
14778;SDS011;7481;53.750;10.570;2024-02-15T14:24:31;18.50;;;12.37;;
14778;SDS011;7481;53.750;10.570;2024-02-15T14:28:55;17.67;;;13.03;;
14778;SDS011;7481;53.750;10.570;2024-02-15T14:33:19;18.07;;;12.60;;
14778;SDS011;7481;53.750;10.570;2024-02-15T14:37:46;18.03;;;12.93;;
14778;SDS011;7481;53.750;10.570;2024-02-15T14:42:17;13.43;;;9.93;;
14778;SDS011;7481;53.750;10.570;2024-02-15T14:46:44;11.63;;;10.30;;
14778;SDS011;7481;53.750;10.570;2024-02-15T14:51:09;11.47;;;9.70;;
14778;SDS011;7481;53.750;10.570;2024-02-15T14:55:38;12.33;;;9.37;;
14778;SDS011;7481;53.750;10.570;2024-02-15T15:00:15;14.10;;;9.50;;
14778;SDS011;7481;53.750;10.570;2024-02-15T15:04:43;19.23;;;13.67;;
14778;SDS011;7481;53.750;10.570;2024-02-15T15:09:41;13.37;;;11.90;;
14778;SDS011;7481;53.750;10.570;2024-02-15T15:14:25;13.23;;;11.83;;
14778;SDS011;7481;53.750;10.570;2024-02-15T15:19:00;11.77;;;9.97;;
14778;SDS011;7481;53.750;10.570;2024-02-15T15:23:23;12.37;;;10.43;;
14778;SDS011;7481;53.750;10.570;2024-02-15T15:27:47;17.47;;;13.23;;
14778;SDS011;7481;53.750;10.570;2024-02-15T15:32:13;14.83;;;13.13;;
14778;SDS011;7481;53.750;10.570;2024-02-15T15:36:39;13.70;;;11.40;;
14778;SDS011;7481;53.750;10.570;2024-02-15T15:41:07;18.80;;;10.20;;
14778;SDS011;7481;53.750;10.570;2024-02-15T15:45:37;13.53;;;10.67;;
14778;SDS011;7481;53.750;10.570;2024-02-15T15:50:07;14.03;;;9.47;;
14778;SDS011;7481;53.750;10.570;2024-02-15T15:54:35;10.93;;;9.43;;
14778;SDS011;7481;53.750;10.570;2024-02-15T15:59:01;11.07;;;9.70;;
14778;SDS011;7481;53.750;10.570;2024-02-15T16:03:40;13.10;;;10.60;;
14778;SDS011;7481;53.750;10.570;2024-02-15T16:08:05;13.33;;;11.03;;
14778;SDS011;7481;53.750;10.570;2024-02-15T16:12:36;14.90;;;12.10;;
14778;SDS011;7481;53.750;10.570;2024-02-15T16:17:10;13.57;;;11.53;;
14778;SDS011;7481;53.750;10.570;2024-02-15T16:21:40;18.90;;;15.33;;
14778;SDS011;7481;53.750;10.570;2024-02-15T16:26:14;24.60;;;17.43;;
14778;SDS011;7481;53.750;10.570;2024-02-15T16:30:56;19.03;;;14.87;;
14778;SDS011;7481;53.750;10.570;2024-02-15T16:35:32;19.60;;;14.23;;
14778;SDS011;7481;53.750;10.570;2024-02-15T16:40:12;16.67;;;13.40;;
14778;SDS011;7481;53.750;10.570;2024-02-15T16:44:44;24.73;;;18.23;;
14778;SDS011;7481;53.750;10.570;2024-02-15T16:49:15;18.67;;;14.77;;
14778;SDS011;7481;53.750;10.570;2024-02-15T16:54:04;18.30;;;15.03;;
14778;SDS011;7481;53.750;10.570;2024-02-15T16:58:37;21.00;;;16.43;;
14778;SDS011;7481;53.750;10.570;2024-02-15T17:03:03;20.07;;;15.30;;
14778;SDS011;7481;53.750;10.570;2024-02-15T17:07:33;22.23;;;16.50;;
14778;SDS011;7481;53.750;10.570;2024-02-15T17:12:01;22.63;;;16.70;;
14778;SDS011;7481;53.750;10.570;2024-02-15T17:16:34;24.37;;;17.53;;
14778;SDS011;7481;53.750;10.570;2024-02-15T17:21:09;20.57;;;17.23;;
14778;SDS011;7481;53.750;10.570;2024-02-15T17:25:42;30.60;;;23.80;;
14778;SDS011;7481;53.750;10.570;2024-02-15T17:30:11;26.83;;;19.00;;
14778;SDS011;7481;53.750;10.570;2024-02-15T17:35:28;27.23;;;22.10;;
14778;SDS011;7481;53.750;10.570;2024-02-15T17:40:05;34.97;;;26.67;;
14778;SDS011;7481;53.750;10.570;2024-02-15T17:44:38;27.73;;;22.20;;
14778;SDS011;7481;53.750;10.570;2024-02-15T17:49:08;29.13;;;19.10;;
14778;SDS011;7481;53.750;10.570;2024-02-15T17:53:51;27.47;;;20.20;;
14778;SDS011;7481;53.750;10.570;2024-02-15T17:58:29;23.70;;;18.43;;
14778;SDS011;7481;53.750;10.570;2024-02-15T18:03:01;21.50;;;17.07;;
14778;SDS011;7481;53.750;10.570;2024-02-15T18:07:35;23.40;;;17.87;;
14778;SDS011;7481;53.750;10.570;2024-02-15T18:12:01;22.43;;;18.20;;
14778;SDS011;7481;53.750;10.570;2024-02-15T18:16:30;24.77;;;16.97;;
14778;SDS011;7481;53.750;10.570;2024-02-15T18:21:08;23.97;;;17.87;;
14778;SDS011;7481;53.750;10.570;2024-02-15T18:25:53;43.07;;;32.67;;
14778;SDS011;7481;53.750;10.570;2024-02-15T18:30:21;23.27;;;18.03;;
14778;SDS011;7481;53.750;10.570;2024-02-15T18:34:55;24.37;;;17.77;;
14778;SDS011;7481;53.750;10.570;2024-02-15T18:39:25;24.43;;;17.20;;
14778;SDS011;7481;53.750;10.570;2024-02-15T18:43:58;20.57;;;15.70;;
14778;SDS011;7481;53.750;10.570;2024-02-15T18:48:30;19.73;;;15.60;;
14778;SDS011;7481;53.750;10.570;2024-02-15T18:53:02;21.33;;;14.70;;
14778;SDS011;7481;53.750;10.570;2024-02-15T18:57:26;21.60;;;15.70;;
14778;SDS011;7481;53.750;10.570;2024-02-15T19:01:51;22.07;;;16.40;;
14778;SDS011;7481;53.750;10.570;2024-02-15T19:06:22;23.63;;;15.47;;
14778;SDS011;7481;53.750;10.570;2024-02-15T19:10:51;21.13;;;15.33;;
14778;SDS011;7481;53.750;10.570;2024-02-15T19:15:20;21.27;;;14.53;;
14778;SDS011;7481;53.750;10.570;2024-02-15T19:19:54;18.17;;;14.03;;
14778;SDS011;7481;53.750;10.570;2024-02-15T19:24:20;16.70;;;13.73;;
14778;SDS011;7481;53.750;10.570;2024-02-15T19:28:52;28.77;;;18.20;;
14778;SDS011;7481;53.750;10.570;2024-02-15T19:33:14;24.50;;;17.93;;
14778;SDS011;7481;53.750;10.570;2024-02-15T19:37:45;27.23;;;18.13;;
14778;SDS011;7481;53.750;10.570;2024-02-15T19:42:16;23.10;;;17.67;;
14778;SDS011;7481;53.750;10.570;2024-02-15T19:46:50;22.93;;;16.80;;
14778;SDS011;7481;53.750;10.570;2024-02-15T19:51:17;24.97;;;16.37;;
14778;SDS011;7481;53.750;10.570;2024-02-15T19:55:44;19.50;;;15.07;;
14778;SDS011;7481;53.750;10.570;2024-02-15T20:00:10;20.97;;;15.73;;
14778;SDS011;7481;53.750;10.570;2024-02-15T20:04:33;19.73;;;14.80;;
14778;SDS011;7481;53.750;10.570;2024-02-15T20:09:09;24.03;;;14.30;;
14778;SDS011;7481;53.750;10.570;2024-02-15T20:13:36;20.03;;;13.40;;
14778;SDS011;7481;53.750;10.570;2024-02-15T20:18:13;20.83;;;14.73;;
14778;SDS011;7481;53.750;10.570;2024-02-15T20:22:38;18.10;;;13.90;;
14778;SDS011;7481;53.750;10.570;2024-02-15T20:27:05;18.80;;;15.40;;
14778;SDS011;7481;53.750;10.570;2024-02-15T20:31:28;16.30;;;13.67;;
14778;SDS011;7481;53.750;10.570;2024-02-15T20:36:01;17.37;;;13.27;;
14778;SDS011;7481;53.750;10.570;2024-02-15T20:40:28;15.07;;;12.27;;
14778;SDS011;7481;53.750;10.570;2024-02-15T20:44:55;18.73;;;12.33;;
14778;SDS011;7481;53.750;10.570;2024-02-15T20:49:21;20.53;;;17.83;;
14778;SDS011;7481;53.750;10.570;2024-02-15T20:53:51;27.40;;;18.73;;
14778;SDS011;7481;53.750;10.570;2024-02-15T20:58:20;35.67;;;26.77;;
14778;SDS011;7481;53.750;10.570;2024-02-15T21:02:53;31.27;;;23.17;;
14778;SDS011;7481;53.750;10.570;2024-02-15T21:07:21;24.73;;;19.13;;
14778;SDS011;7481;53.750;10.570;2024-02-15T21:11:49;16.50;;;12.30;;
14778;SDS011;7481;53.750;10.570;2024-02-15T21:16:22;14.63;;;11.43;;
14778;SDS011;7481;53.750;10.570;2024-02-15T21:20:50;13.67;;;11.50;;
14778;SDS011;7481;53.750;10.570;2024-02-15T21:25:17;19.13;;;11.80;;
14778;SDS011;7481;53.750;10.570;2024-02-15T21:29:49;14.73;;;11.50;;
14778;SDS011;7481;53.750;10.570;2024-02-15T21:34:17;16.40;;;12.40;;
14778;SDS011;7481;53.750;10.570;2024-02-15T21:38:47;16.97;;;11.77;;
14778;SDS011;7481;53.750;10.570;2024-02-15T21:43:24;17.57;;;13.50;;
14778;SDS011;7481;53.750;10.570;2024-02-15T21:47:54;14.93;;;11.27;;
14778;SDS011;7481;53.750;10.570;2024-02-15T21:52:23;17.07;;;11.03;;
14778;SDS011;7481;53.750;10.570;2024-02-15T21:56:57;15.50;;;10.53;;
14778;SDS011;7481;53.750;10.570;2024-02-15T22:01:22;13.10;;;11.13;;
14778;SDS011;7481;53.750;10.570;2024-02-15T22:05:52;14.37;;;11.83;;
14778;SDS011;7481;53.750;10.570;2024-02-15T22:10:22;18.27;;;10.70;;
14778;SDS011;7481;53.750;10.570;2024-02-15T22:14:48;13.87;;;10.73;;
14778;SDS011;7481;53.750;10.570;2024-02-15T22:19:20;13.33;;;10.57;;
14778;SDS011;7481;53.750;10.570;2024-02-15T22:23:52;16.07;;;10.07;;
14778;SDS011;7481;53.750;10.570;2024-02-15T22:28:22;14.03;;;10.73;;
14778;SDS011;7481;53.750;10.570;2024-02-15T22:32:52;17.33;;;10.13;;
14778;SDS011;7481;53.750;10.570;2024-02-15T22:37:26;14.33;;;10.87;;
14778;SDS011;7481;53.750;10.570;2024-02-15T22:42:00;20.47;;;11.00;;
14778;SDS011;7481;53.750;10.570;2024-02-15T22:46:27;14.03;;;10.40;;
14778;SDS011;7481;53.750;10.570;2024-02-15T22:50:55;17.20;;;10.90;;
14778;SDS011;7481;53.750;10.570;2024-02-15T22:55:28;14.20;;;9.80;;
14778;SDS011;7481;53.750;10.570;2024-02-15T22:59:58;14.07;;;10.80;;
14778;SDS011;7481;53.750;10.570;2024-02-15T23:04:25;15.00;;;10.17;;
14778;SDS011;7481;53.750;10.570;2024-02-15T23:08:55;15.03;;;10.23;;
14778;SDS011;7481;53.750;10.570;2024-02-15T23:13:29;14.20;;;9.97;;
14778;SDS011;7481;53.750;10.570;2024-02-15T23:18:01;13.17;;;9.73;;
14778;SDS011;7481;53.750;10.570;2024-02-15T23:22:30;17.27;;;10.50;;
14778;SDS011;7481;53.750;10.570;2024-02-15T23:31:42;12.57;;;9.63;;
14778;SDS011;7481;53.750;10.570;2024-02-15T23:36:14;14.27;;;9.83;;
14778;SDS011;7481;53.750;10.570;2024-02-15T23:40:57;15.47;;;9.90;;
14778;SDS011;7481;53.750;10.570;2024-02-15T23:45:24;16.57;;;9.23;;
14778;SDS011;7481;53.750;10.570;2024-02-15T23:50:05;14.10;;;9.07;;
14778;SDS011;7481;53.750;10.570;2024-02-15T23:54:33;14.47;;;9.17;;
14778;SDS011;7481;53.750;10.570;2024-02-15T23:59:03;11.73;;;9.17;;
